Pagrindinis puslapis
METAR-TAF:

METAR-TAF

Oro uostai :

Medisin Hetas, Alberta, Kanada

platuma: 50-01N, ilguma: 110-43W, Aukštis: 717 m

Dabartinis oras

Ataskaita buvo paskelbta 33 minutes, ne 14:00 UTC
Vėjas 2 kt iš Pietų
Temperatūra -23°C
Drėgmė 84%
Slėgis 1028 hPa
Matomumas: 48.3 km
Giedras dangus

METAR: CYXH 191400Z 17002KT 30SM SKC M23/M25 A3036 RMK FROIN SLP351

Laikas: 07:33 (14:33 UTC)

Prognozė

Ataskaita buvo paskelbta 2 valandos ir 52 minutes, ne 11:41 UTC
Prognozė galioja nuo 19 metu 12 UTC su 19 metu 24 UTC
Vėjas 3 kt nuo kintamojo kryptimis
Matomumas: 10 km
Giedras dangus
Laikinai
nuo 19 metu 12 UTC su 19 metu 16 UTC
Matomumas: 8.0 km
ledo kristalai, migla

TAF: CYXH 191141Z 1912/1924 VRB03KT P6SM SKC TEMPO 1912/1916 5SM IC HZ RMK FCST BASED ON AUTO OBS. NXT FCST BY 191800Z

Orai ataskaitas ir orų prognozės (METAR, TAF).

turimą stotys yra geltonos ir raudonos taškus žemėlapyje.

Perkelti pele per norėdami pamatyti stoties vardą.

Tada spustelėkite, norėdami matyti oro stebėjimo ir prognozės.

Norėdami pakeisti žemėlapį: spustelėkite ant žalios mygtukų su juodo kryžiaus žemyn,; žalią mygtuką su brūkšneliu, jei norite nutolinti; arba žalių rodyklių gretimoms žemėlapius.


METAR-TAF: